Time;durP1;ratioP1;P1;durP2;ratioP2;P2;SDS_P1;SDS_P2;PMS_P1;PMS_P2;Temp;Humidity;BMP_temperature;BMP_pressure;BME280_temperature;BME280_humidity;BME280_pressure;Samples;Min_cycle;Max_cycle;Signal;HPM_P1;HPM_P2
2021/10/27 00:00:27;;;;;;;20.40;9.30;;;;;;;;;;4987830;28;20038;-61
2021/10/27 00:02:53;;;;;;;15.68;7.57;;;;;;;;;;4999089;28;20053;-61
2021/10/27 00:05:21;;;;;;;21.15;7.80;;;;;;;;;;4969784;28;20113;-61
2021/10/27 00:07:48;;;;;;;18.55;7.30;;;;;;;;;;4971060;28;20121;-61
2021/10/27 00:10:15;;;;;;;22.95;7.72;;;;;;;;;;4946988;28;20038;-60
2021/10/27 00:12:42;;;;;;;15.48;7.60;;;;;;;;;;4933995;29;20043;-61
2021/10/27 00:15:10;;;;;;;18.58;7.78;;;;;;;;;;4942558;28;20035;-61
2021/10/27 00:17:37;;;;;;;16.10;7.38;;;;;;;;;;4948549;28;20129;-60
2021/10/27 00:20:05;;;;;;;16.52;7.93;;;;;;;;;;4946013;28;20057;-60
2021/10/27 00:22:31;;;;;;;18.17;7.25;;;;;;;;;;4944875;28;20042;-61
2021/10/27 00:24:58;;;;;;;21.42;8.27;;;;;;;;;;4944175;28;20129;-60
2021/10/27 00:27:24;;;;;;;19.48;8.13;;;;;;;;;;4971451;28;20034;-60
2021/10/27 00:29:52;;;;;;;16.60;6.85;;;;;;;;;;4978221;28;20067;-61
2021/10/27 00:32:19;;;;;;;17.17;8.17;;;;;;;;;;4983236;28;20125;-61
2021/10/27 00:34:46;;;;;;;16.92;7.50;;;;;;;;;;4970547;28;20085;-61
2021/10/27 00:37:13;;;;;;;15.03;6.70;;;;;;;;;;4946782;28;20047;-61
2021/10/27 00:39:40;;;;;;;14.88;7.45;;;;;;;;;;4942846;28;20042;-61
2021/10/27 00:42:07;;;;;;;20.20;8.57;;;;;;;;;;4948651;28;20043;-61
2021/10/27 00:44:34;;;;;;;22.98;7.75;;;;;;;;;;4942545;28;20063;-61
2021/10/27 00:47:04;;;;;;;14.75;7.38;;;;;;;;;;4946932;28;20070;-61
2021/10/27 00:49:31;;;;;;;15.10;7.53;;;;;;;;;;4945451;28;20038;-61
2021/10/27 00:51:58;;;;;;;16.15;7.78;;;;;;;;;;4928661;29;20047;-61
2021/10/27 00:54:26;;;;;;;15.90;7.28;;;;;;;;;;4946747;28;20055;-61
2021/10/27 00:56:53;;;;;;;16.23;8.23;;;;;;;;;;4941923;28;20053;-61
2021/10/27 00:59:19;;;;;;;17.75;8.25;;;;;;;;;;4946539;28;20057;-61
2021/10/27 01:01:46;;;;;;;20.70;7.68;;;;;;;;;;4944072;28;20027;-61
2021/10/27 01:04:15;;;;;;;14.60;8.25;;;;;;;;;;4947744;28;20043;-61
2021/10/27 01:06:42;;;;;;;17.98;7.97;;;;;;;;;;4974830;28;20042;-61
2021/10/27 01:09:09;;;;;;;20.27;7.95;;;;;;;;;;4967151;28;20069;-61
2021/10/27 01:11:35;;;;;;;17.38;8.13;;;;;;;;;;4955432;28;20050;-61
2021/10/27 01:14:04;;;;;;;17.48;8.18;;;;;;;;;;4947623;28;20095;-61
2021/10/27 01:16:30;;;;;;;;;;;;;;;;;;4945052;28;20057;-60
2021/10/27 01:18:57;;;;;;;23.23;8.38;;;;;;;;;;4946707;28;19958;-62
2021/10/27 01:21:29;;;;;;;15.98;7.65;;;;;;;;;;4944457;28;20051;-61
2021/10/27 01:23:56;;;;;;;16.90;8.68;;;;;;;;;;4952388;28;20043;-61
2021/10/27 01:26:22;;;;;;;23.05;8.30;;;;;;;;;;4944934;28;20035;-62
2021/10/27 01:28:50;;;;;;;13.30;7.65;;;;;;;;;;4964680;28;20031;-61
2021/10/27 01:31:16;;;;;;;18.15;7.85;;;;;;;;;;4962234;28;20066;-61
2021/10/27 01:33:44;;;;;;;13.60;7.22;;;;;;;;;;4947725;28;20054;-61
2021/10/27 01:36:11;;;;;;;15.53;7.40;;;;;;;;;;4964358;28;20127;-61
2021/10/27 01:38:39;;;;;;;14.52;7.68;;;;;;;;;;4963233;28;20058;-61
2021/10/27 01:41:05;;;;;;;15.47;7.20;;;;;;;;;;4949160;28;20067;-61
2021/10/27 01:43:35;;;;;;;20.63;7.30;;;;;;;;;;4962164;28;20344;-61
2021/10/27 01:46:01;;;;;;;15.73;7.05;;;;;;;;;;4947873;28;20054;-61
2021/10/27 01:48:28;;;;;;;16.42;7.20;;;;;;;;;;4960885;28;20054;-61
2021/10/27 01:50:55;;;;;;;17.63;7.43;;;;;;;;;;4948384;28;20058;-61
2021/10/27 01:53:21;;;;;;;16.33;7.45;;;;;;;;;;4943892;28;20031;-61
2021/10/27 01:55:49;;;;;;;19.48;7.95;;;;;;;;;;4947533;28;20178;-61
2021/10/27 01:58:16;;;;;;;15.95;6.70;;;;;;;;;;4944468;28;20043;-61
2021/10/27 02:00:44;;;;;;;18.17;6.88;;;;;;;;;;4959795;28;20059;-62
2021/10/27 02:03:11;;;;;;;17.47;6.90;;;;;;;;;;4943642;28;20050;-61
2021/10/27 02:05:41;;;;;;;18.60;7.28;;;;;;;;;;4946529;28;20329;-61
2021/10/27 02:08:08;;;;;;;15.50;6.85;;;;;;;;;;4943669;28;20129;-61
2021/10/27 02:10:34;;;;;;;16.73;7.05;;;;;;;;;;4947249;28;20043;-61
2021/10/27 02:13:02;;;;;;;15.05;7.07;;;;;;;;;;4929329;28;20043;-61
2021/10/27 02:15:29;;;;;;;13.93;6.55;;;;;;;;;;4966978;28;20098;-60
2021/10/27 02:17:56;;;;;;;16.23;6.80;;;;;;;;;;4962458;28;20039;-61
2021/10/27 02:20:23;;;;;;;15.55;6.70;;;;;;;;;;4968200;28;20042;-61
2021/10/27 02:22:49;;;;;;;14.43;6.50;;;;;;;;;;4962153;28;20043;-61
2021/10/27 02:25:16;;;;;;;15.68;6.10;;;;;;;;;;4945589;28;20046;-61
2021/10/27 02:27:43;;;;;;;18.90;6.72;;;;;;;;;;4949435;28;20027;-61
2021/10/27 02:30:11;;;;;;;14.68;6.53;;;;;;;;;;4960811;28;20170;-61
2021/10/27 02:32:37;;;;;;;17.00;5.95;;;;;;;;;;4966016;28;20046;-64
2021/10/27 02:35:05;;;;;;;13.43;6.15;;;;;;;;;;4969746;28;20046;-61
2021/10/27 02:37:32;;;;;;;16.48;6.10;;;;;;;;;;4949241;28;20028;-61
2021/10/27 02:39:58;;;;;;;11.38;5.35;;;;;;;;;;4947730;28;20050;-61
2021/10/27 02:42:25;;;;;;;14.38;6.00;;;;;;;;;;4949258;28;20050;-61
2021/10/27 02:44:52;;;;;;;12.15;5.63;;;;;;;;;;4946845;28;20160;-61
2021/10/27 02:47:20;;;;;;;12.38;5.55;;;;;;;;;;4950892;28;20043;-61
2021/10/27 02:49:46;;;;;;;13.57;5.88;;;;;;;;;;4961777;28;20057;-61
2021/10/27 02:52:13;;;;;;;11.27;4.85;;;;;;;;;;4966536;28;20135;-61
2021/10/27 02:54:40;;;;;;;12.88;5.35;;;;;;;;;;4945952;28;20190;-61
2021/10/27 02:57:07;;;;;;;11.15;4.90;;;;;;;;;;4949320;28;20042;-61
2021/10/27 02:59:36;;;;;;;13.82;5.18;;;;;;;;;;4948234;28;20051;-61
2021/10/27 03:02:02;;;;;;;20.13;4.82;;;;;;;;;;4927845;29;20047;-61
2021/10/27 03:04:30;;;;;;;11.90;4.97;;;;;;;;;;4929589;28;20046;-61
2021/10/27 03:06:57;;;;;;;12.38;4.65;;;;;;;;;;4959971;28;20051;-61
2021/10/27 03:09:23;;;;;;;15.48;4.88;;;;;;;;;;4970200;28;20042;-61
2021/10/27 03:11:51;;;;;;;10.75;3.70;;;;;;;;;;4956868;28;20054;-61
2021/10/27 03:14:18;;;;;;;10.10;4.30;;;;;;;;;;4949852;28;20042;-61
2021/10/27 03:16:45;;;;;;;12.13;4.20;;;;;;;;;;4944405;28;20046;-60
2021/10/27 03:19:11;;;;;;;9.93;3.42;;;;;;;;;;4949257;28;20464;-61
2021/10/27 03:21:39;;;;;;;13.50;3.90;;;;;;;;;;4955467;28;20042;-61
2021/10/27 03:24:07;;;;;;;11.90;3.60;;;;;;;;;;4968897;28;20067;-61
2021/10/27 03:26:34;;;;;;;11.85;3.40;;;;;;;;;;4943565;28;20039;-61
2021/10/27 03:29:00;;;;;;;9.60;3.47;;;;;;;;;;4964930;28;20117;-61
2021/10/27 03:31:28;;;;;;;9.23;3.15;;;;;;;;;;4950419;28;20047;-61
2021/10/27 03:33:54;;;;;;;12.48;3.55;;;;;;;;;;4961024;28;20030;-60
2021/10/27 03:36:21;;;;;;;11.55;3.33;;;;;;;;;;4978207;28;20076;-61
2021/10/27 03:38:51;;;;;;;13.90;3.30;;;;;;;;;;4948906;28;20035;-61
2021/10/27 03:41:17;;;;;;;9.00;3.28;;;;;;;;;;4946944;28;20058;-61
2021/10/27 03:43:44;;;;;;;10.70;3.00;;;;;;;;;;4948981;28;20043;-61
2021/10/27 03:46:11;;;;;;;9.18;3.17;;;;;;;;;;4949128;28;20043;-61
2021/10/27 03:48:38;;;;;;;10.35;2.95;;;;;;;;;;4934053;28;20075;-61
2021/10/27 03:51:04;;;;;;;6.95;2.70;;;;;;;;;;4928630;29;20032;-61
2021/10/27 03:53:31;;;;;;;8.63;2.80;;;;;;;;;;4959552;28;20087;-61
2021/10/27 03:55:59;;;;;;;14.43;2.88;;;;;;;;;;4949003;28;20130;-61
2021/10/27 03:58:26;;;;;;;6.78;2.53;;;;;;;;;;4945214;28;20056;-61
2021/10/27 04:00:53;;;;;;;11.68;2.97;;;;;;;;;;4948110;28;20098;-61
2021/10/27 04:03:23;;;;;;;8.73;2.78;;;;;;;;;;4955495;28;20051;-61
2021/10/27 04:05:51;;;;;;;8.27;2.67;;;;;;;;;;4968836;28;20130;-62
2021/10/27 04:08:17;;;;;;;8.45;2.45;;;;;;;;;;4954935;28;20059;-61
2021/10/27 04:10:45;;;;;;;13.15;2.80;;;;;;;;;;4948631;28;20050;-61
2021/10/27 04:13:13;;;;;;;7.07;2.70;;;;;;;;;;4933886;28;20042;-61
2021/10/27 04:15:40;;;;;;;9.82;2.65;;;;;;;;;;4963489;28;20047;-61
2021/10/27 04:18:06;;;;;;;8.52;2.60;;;;;;;;;;4962379;28;20035;-61
2021/10/27 04:20:33;;;;;;;11.38;2.58;;;;;;;;;;4947849;28;20035;-61
2021/10/27 04:22:59;;;;;;;5.93;2.40;;;;;;;;;;4950278;28;20049;-61
2021/10/27 04:25:27;;;;;;;7.65;2.20;;;;;;;;;;4948929;28;20137;-61
2021/10/27 04:27:54;;;;;;;6.23;2.30;;;;;;;;;;4946988;28;20043;-61
2021/10/27 04:30:21;;;;;;;8.55;2.83;;;;;;;;;;4963206;28;20079;-62
2021/10/27 04:32:48;;;;;;;12.17;2.40;;;;;;;;;;4965897;28;20046;-61
2021/10/27 04:35:16;;;;;;;6.97;2.13;;;;;;;;;;4966047;28;20047;-61
2021/10/27 04:37:44;;;;;;;4.15;2.00;;;;;;;;;;4965780;28;20039;-61
2021/10/27 04:40:12;;;;;;;10.88;3.15;;;;;;;;;;4975240;28;20063;-61
2021/10/27 04:42:39;;;;;;;14.15;2.67;;;;;;;;;;4967994;28;20094;-61
2021/10/27 04:45:08;;;;;;;9.18;2.20;;;;;;;;;;4953143;28;20027;-61
2021/10/27 04:47:36;;;;;;;14.35;2.60;;;;;;;;;;4949743;28;20118;-62
2021/10/27 04:50:03;;;;;;;12.55;2.40;;;;;;;;;;4944511;28;20059;-61
2021/10/27 04:52:29;;;;;;;11.32;2.30;;;;;;;;;;4946273;28;20057;-62
2021/10/27 04:54:56;;;;;;;9.45;2.45;;;;;;;;;;4945305;28;20039;-61
2021/10/27 04:57:23;;;;;;;10.20;2.63;;;;;;;;;;4947404;28;20066;-61
2021/10/27 04:59:49;;;;;;;9.25;2.72;;;;;;;;;;4948517;28;20046;-61
2021/10/27 05:02:16;;;;;;;8.23;2.45;;;;;;;;;;4982913;28;20050;-61
2021/10/27 05:04:45;;;;;;;15.00;3.97;;;;;;;;;;4978765;28;20129;-61
2021/10/27 05:07:12;;;;;;;12.57;3.53;;;;;;;;;;4984161;28;20050;-61
2021/10/27 05:09:40;;;;;;;11.10;4.23;;;;;;;;;;4962609;28;20056;-61
2021/10/27 05:12:07;;;;;;;10.82;3.70;;;;;;;;;;4937959;29;20035;-61
2021/10/27 05:14:36;;;;;;;12.63;2.67;;;;;;;;;;4928021;29;20047;-61
2021/10/27 05:17:05;;;;;;;10.48;2.90;;;;;;;;;;4938978;28;20129;-61
2021/10/27 05:19:32;;;;;;;8.18;2.55;;;;;;;;;;4945662;28;20047;-61
2021/10/27 05:22:00;;;;;;;14.38;2.67;;;;;;;;;;4959128;28;20178;-61
2021/10/27 05:24:26;;;;;;;10.70;2.70;;;;;;;;;;4946460;28;20051;-61
2021/10/27 05:26:53;;;;;;;9.45;1.98;;;;;;;;;;4942384;28;20042;-61
2021/10/27 05:29:20;;;;;;;7.85;1.92;;;;;;;;;;4945946;28;20050;-61
2021/10/27 05:31:46;;;;;;;9.50;2.10;;;;;;;;;;4941042;28;20039;-61
2021/10/27 05:34:16;;;;;;;11.43;2.45;;;;;;;;;;4945580;28;20059;-61
2021/10/27 05:36:43;;;;;;;13.50;4.20;;;;;;;;;;4940981;28;20058;-61
2021/10/27 05:39:12;;;;;;;17.73;4.03;;;;;;;;;;4962061;28;20043;-61
2021/10/27 05:41:41;;;;;;;11.07;2.72;;;;;;;;;;4941252;28;20047;-61
2021/10/27 05:44:08;;;;;;;12.07;2.05;;;;;;;;;;4936340;28;20082;-61
2021/10/27 05:46:38;;;;;;;8.70;2.47;;;;;;;;;;4939118;28;20132;-61
2021/10/27 05:49:12;;;;;;;13.20;1.92;;;;;;;;;;4942182;28;20324;-61
2021/10/27 05:51:42;;;;;;;8.77;2.20;;;;;;;;;;4941205;28;20051;-61
2021/10/27 05:56:55;;;;;;;14.60;2.92;;;;;;;;;;4940415;28;20039;-62
2021/10/27 05:59:21;;;;;;;11.70;2.80;;;;;;;;;;4937377;29;20051;-61
2021/10/27 06:01:48;;;;;;;13.15;2.72;;;;;;;;;;4926118;28;20044;-61
2021/10/27 06:04:16;;;;;;;10.55;2.53;;;;;;;;;;4947140;28;20038;-62
2021/10/27 06:06:42;;;;;;;7.10;2.27;;;;;;;;;;4952986;28;20035;-61
2021/10/27 06:09:09;;;;;;;8.32;2.78;;;;;;;;;;4980646;28;20157;-61
2021/10/27 06:11:37;;;;;;;6.70;2.50;;;;;;;;;;4997960;28;20046;-61
2021/10/27 06:14:04;;;;;;;9.05;2.40;;;;;;;;;;4962083;28;20039;-61
2021/10/27 06:16:31;;;;;;;12.25;2.67;;;;;;;;;;4968259;28;20089;-61
2021/10/27 06:18:58;;;;;;;11.32;3.17;;;;;;;;;;4964436;28;20050;-62
2021/10/27 06:21:25;;;;;;;11.80;2.80;;;;;;;;;;4966120;28;20041;-61
2021/10/27 06:23:51;;;;;;;10.45;3.17;;;;;;;;;;4981445;28;20051;-61
2021/10/27 06:26:19;;;;;;;12.82;3.20;;;;;;;;;;4966372;28;20046;-61
2021/10/27 06:28:56;;;;;;;9.98;2.70;;;;;;;;;;4978750;28;20050;-62
2021/10/27 06:31:28;;;;;;;11.60;2.67;;;;;;;;;;4965565;28;20042;-61
2021/10/27 06:33:59;;;;;;;10.00;2.50;;;;;;;;;;4987036;28;20045;-62
2021/10/27 06:36:30;;;;;;;11.25;2.20;;;;;;;;;;4984489;28;20071;-61
2021/10/27 06:47:12;;;;;;;7.82;2.88;;;;;;;;;;4950405;28;20053;-60
2021/10/27 06:49:39;;;;;;;11.13;2.85;;;;;;;;;;4962682;28;20035;-62
2021/10/27 06:52:06;;;;;;;13.05;3.50;;;;;;;;;;4964386;28;20043;-61
2021/10/27 06:54:33;;;;;;;14.77;3.58;;;;;;;;;;4969219;28;20046;-62
2021/10/27 06:56:59;;;;;;;11.90;3.65;;;;;;;;;;4984977;28;20042;-62
2021/10/27 06:59:31;;;;;;;7.50;3.05;;;;;;;;;;4980391;28;20081;-61
2021/10/27 07:05:04;;;;;;;9.80;2.92;;;;;;;;;;4944362;28;20124;-61
2021/10/27 07:15:43;;;;;;;7.82;3.30;;;;;;;;;;4964737;28;20042;-62
2021/10/27 07:18:10;;;;;;;8.30;3.35;;;;;;;;;;4989021;28;20030;-61
2021/10/27 07:20:37;;;;;;;12.63;3.23;;;;;;;;;;4982302;28;20036;-62
2021/10/27 07:23:04;;;;;;;13.32;3.60;;;;;;;;;;4993916;28;20303;-61
2021/10/27 07:25:34;;;;;;;12.60;3.00;;;;;;;;;;4963443;28;20035;-62
2021/10/27 07:28:00;;;;;;;7.07;2.75;;;;;;;;;;4967350;28;20051;-61
2021/10/27 07:30:26;;;;;;;18.33;3.70;;;;;;;;;;4965855;28;20046;-62
2021/10/27 07:32:56;;;;;;;16.88;3.33;;;;;;;;;;4986076;28;20041;-61
2021/10/27 07:35:33;;;;;;;8.57;3.17;;;;;;;;;;4969585;28;20034;-61
2021/10/27 07:40:46;;;;;;;14.40;3.97;;;;;;;;;;4980170;28;20141;-61
2021/10/27 07:43:17;;;;;;;13.40;4.00;;;;;;;;;;4985210;28;20097;-62
2021/10/27 07:45:44;;;;;;;12.48;4.45;;;;;;;;;;4965563;28;20051;-62
2021/10/27 07:48:11;;;;;;;22.20;4.68;;;;;;;;;;4988368;28;20037;-62
2021/10/27 07:50:39;;;;;;;14.38;4.43;;;;;;;;;;4989256;28;20041;-61
2021/10/27 07:53:07;;;;;;;11.65;3.78;;;;;;;;;;4956947;28;20055;-61
2021/10/27 07:55:33;;;;;;;10.30;3.78;;;;;;;;;;4968073;28;20042;-61
2021/10/27 07:58:01;;;;;;;13.13;3.72;;;;;;;;;;4963881;28;20070;-61
2021/10/27 08:00:29;;;;;;;13.20;4.10;;;;;;;;;;4967610;28;20046;-61
2021/10/27 08:03:00;;;;;;;10.15;4.00;;;;;;;;;;4964444;28;20045;-61
2021/10/27 08:05:27;;;;;;;12.57;4.45;;;;;;;;;;4967456;28;20129;-61
2021/10/27 08:07:57;;;;;;;8.38;4.32;;;;;;;;;;4976747;28;20054;-61
2021/10/27 08:10:24;;;;;;;11.13;4.43;;;;;;;;;;4967363;28;20038;-61
2021/10/27 08:12:50;;;;;;;10.45;3.63;;;;;;;;;;4948012;28;20072;-61
2021/10/27 08:15:19;;;;;;;11.70;3.97;;;;;;;;;;4965452;28;20118;-61
2021/10/27 08:17:46;;;;;;;14.13;4.43;;;;;;;;;;4951154;28;20045;-61
2021/10/27 08:20:13;;;;;;;7.97;3.95;;;;;;;;;;4965869;28;20117;-61
2021/10/27 08:22:42;;;;;;;15.15;5.03;;;;;;;;;;4958749;28;20039;-62
2021/10/27 08:25:19;;;;;;;13.93;4.47;;;;;;;;;;4977518;28;20058;-61
2021/10/27 08:27:49;;;;;;;13.95;4.38;;;;;;;;;;4963022;28;20034;-61
2021/10/27 08:30:18;;;;;;;13.55;4.13;;;;;;;;;;4983968;28;20059;-61
2021/10/27 08:32:49;;;;;;;14.88;4.75;;;;;;;;;;4969522;28;20063;-63
2021/10/27 08:35:17;;;;;;;13.05;3.72;;;;;;;;;;4947342;28;20072;-62
2021/10/27 08:37:46;;;;;;;11.15;4.05;;;;;;;;;;4944206;28;20053;-62
2021/10/27 08:40:12;;;;;;;;;;;;;;;;;;4948650;28;20043;-61
2021/10/27 08:42:42;;;;;;;10.30;3.78;;;;;;;;;;4945382;28;20005;-62
2021/10/27 08:45:10;;;;;;;12.27;4.43;;;;;;;;;;4943319;28;20046;-61
2021/10/27 08:47:38;;;;;;;10.98;4.70;;;;;;;;;;4948204;28;20031;-61
2021/10/27 08:50:05;;;;;;;13.15;4.35;;;;;;;;;;4959256;28;20105;-61
2021/10/27 08:52:32;;;;;;;18.58;4.65;;;;;;;;;;4983636;28;20125;-61
2021/10/27 08:54:59;;;;;;;20.42;4.72;;;;;;;;;;4960667;28;20054;-62
2021/10/27 08:57:25;;;;;;;13.80;4.68;;;;;;;;;;4981690;28;20043;-62
2021/10/27 08:59:59;;;;;;;9.90;5.10;;;;;;;;;;4951283;28;20031;-61
2021/10/27 09:05:20;;;;;;;15.32;5.45;;;;;;;;;;4945734;28;20075;-62
2021/10/27 09:08:06;;;;;;;12.85;5.38;;;;;;;;;;4984160;28;20138;-62
2021/10/27 09:16:21;;;;;;;11.75;5.35;;;;;;;;;;4935020;28;20047;-62
2021/10/27 09:35:43;;;;;;;13.90;6.55;;;;;;;;;;4942031;28;20106;-61
2021/10/27 09:41:33;;;;;;;16.30;6.07;;;;;;;;;;4916500;28;20046;-62
2021/10/27 09:44:26;;;;;;;14.95;6.32;;;;;;;;;;4962246;28;20045;-61
2021/10/27 10:04:09;;;;;;;17.33;5.85;;;;;;;;;;4946217;28;20047;-61
2021/10/27 10:06:38;;;;;;;15.77;5.80;;;;;;;;;;4931868;28;20174;-61
2021/10/27 10:09:06;;;;;;;11.20;5.82;;;;;;;;;;4946626;28;20042;-61
2021/10/27 10:11:34;;;;;;;11.77;4.75;;;;;;;;;;4958078;28;20040;-62
2021/10/27 10:14:02;;;;;;;13.30;5.80;;;;;;;;;;4966146;28;20047;-61
2021/10/27 10:16:29;;;;;;;14.90;4.95;;;;;;;;;;4977643;28;20047;-62
2021/10/27 10:18:58;;;;;;;12.00;5.90;;;;;;;;;;4962782;28;20042;-61
2021/10/27 10:21:28;;;;;;;14.48;6.10;;;;;;;;;;4983022;28;20034;-62
2021/10/27 10:24:09;;;;;;;12.65;5.68;;;;;;;;;;4959999;28;20070;-61
2021/10/27 10:26:39;;;;;;;13.63;5.53;;;;;;;;;;4965896;28;20038;-61
2021/10/27 10:29:05;;;;;;;15.52;5.50;;;;;;;;;;4977990;28;20050;-62
2021/10/27 10:31:35;;;;;;;12.50;5.40;;;;;;;;;;4965795;28;20046;-62
2021/10/27 10:34:07;;;;;;;11.73;4.65;;;;;;;;;;4958411;28;20046;-60
2021/10/27 10:36:37;;;;;;;13.23;5.60;;;;;;;;;;4985929;28;20046;-62
2021/10/27 10:45:20;;;;;;;14.85;5.28;;;;;;;;;;4936682;28;20047;-61
2021/10/27 10:59:51;;;;;;;11.43;5.00;;;;;;;;;;4949544;28;20054;-61
2021/10/27 11:24:50;;;;;;;14.13;5.40;;;;;;;;;;4979847;28;20045;-61
2021/10/27 11:27:32;;;;;;;9.90;5.20;;;;;;;;;;4982898;28;20042;-62
2021/10/27 11:38:35;;;;;;;11.93;4.65;;;;;;;;;;4966352;28;20038;-62
2021/10/27 11:41:11;;;;;;;11.30;4.35;;;;;;;;;;4963649;28;20050;-62
2021/10/27 11:43:54;;;;;;;9.32;4.07;;;;;;;;;;4983988;28;20042;-63
2021/10/27 11:46:25;;;;;;;9.88;3.92;;;;;;;;;;4963262;28;20066;-62
2021/10/27 11:48:56;;;;;;;15.55;3.80;;;;;;;;;;4966782;28;20049;-62
2021/10/27 11:51:24;;;;;;;10.02;3.50;;;;;;;;;;4960934;28;20043;-61
2021/10/27 11:53:51;;;;;;;9.15;3.15;;;;;;;;;;4982903;28;20050;-63
2021/10/27 11:56:19;;;;;;;10.13;3.47;;;;;;;;;;4971959;28;20042;-62
2021/10/27 11:58:46;;;;;;;12.18;3.60;;;;;;;;;;4986123;28;20046;-64
2021/10/27 12:01:13;;;;;;;10.52;3.13;;;;;;;;;;4977259;28;20078;-63
2021/10/27 12:03:42;;;;;;;12.55;3.70;;;;;;;;;;4968285;28;20054;-63
2021/10/27 12:06:26;;;;;;;10.00;3.47;;;;;;;;;;4983243;28;20054;-63
2021/10/27 12:12:02;;;;;;;8.40;3.65;;;;;;;;;;4953573;28;20050;-63
2021/10/27 12:14:39;;;;;;;6.30;3.35;;;;;;;;;;4947862;28;20105;-63
2021/10/27 12:17:25;;;;;;;10.13;4.07;;;;;;;;;;4945405;28;20071;-64
2021/10/27 12:19:53;;;;;;;13.30;4.20;;;;;;;;;;4947707;28;20054;-63
2021/10/27 12:22:20;;;;;;;10.65;4.45;;;;;;;;;;4949184;28;20083;-64
2021/10/27 12:24:53;;;;;;;7.27;3.63;;;;;;;;;;4946771;28;20046;-63
2021/10/27 12:27:28;;;;;;;11.73;4.22;;;;;;;;;;4945008;28;20062;-64
2021/10/27 12:29:55;;;;;;;20.30;4.88;;;;;;;;;;4937040;28;20050;-63
2021/10/27 12:32:23;;;;;;;8.48;3.65;;;;;;;;;;4949269;28;20132;-64
2021/10/27 12:34:51;;;;;;;13.52;4.38;;;;;;;;;;4966292;28;20050;-63
2021/10/27 12:37:21;;;;;;;14.73;4.97;;;;;;;;;;4979792;28;20058;-62
2021/10/27 12:39:48;;;;;;;12.27;4.65;;;;;;;;;;4946352;28;20054;-63
2021/10/27 12:42:15;;;;;;;11.73;3.65;;;;;;;;;;4944487;28;20137;-63
2021/10/27 12:44:49;;;;;;;11.40;4.60;;;;;;;;;;4966478;28;20050;-63
2021/10/27 12:47:16;;;;;;;11.75;4.75;;;;;;;;;;4965863;28;20121;-63
2021/10/27 12:49:43;;;;;;;14.18;4.32;;;;;;;;;;4944803;28;20035;-62
2021/10/27 12:52:27;;;;;;;10.07;4.13;;;;;;;;;;4947771;28;20039;-62
2021/10/27 12:55:08;;;;;;;11.38;4.03;;;;;;;;;;4962061;28;20051;-63
2021/10/27 12:57:42;;;;;;;6.90;3.58;;;;;;;;;;4945972;28;20086;-62
2021/10/27 13:00:13;;;;;;;9.90;4.07;;;;;;;;;;4944829;28;20066;-63
2021/10/27 13:02:43;;;;;;;12.30;4.13;;;;;;;;;;4946468;28;20042;-64
2021/10/27 13:05:23;;;;;;;14.05;3.88;;;;;;;;;;4962017;28;20062;-64
2021/10/27 13:07:56;;;;;;;8.13;3.72;;;;;;;;;;4982538;28;20046;-63
2021/10/27 13:10:46;;;;;;;12.70;4.20;;;;;;;;;;4945790;28;20051;-64
2021/10/27 13:13:35;;;;;;;12.75;4.03;;;;;;;;;;4943436;28;20062;-63
2021/10/27 13:16:24;;;;;;;12.10;4.18;;;;;;;;;;4925402;29;20186;-63
2021/10/27 13:19:10;;;;;;;7.82;3.35;;;;;;;;;;4926985;28;20098;-63
2021/10/27 13:21:42;;;;;;;8.18;3.92;;;;;;;;;;4948053;28;20110;-63
2021/10/27 13:29:56;;;;;;;11.38;3.88;;;;;;;;;;4898789;29;20221;-63
2021/10/27 13:32:25;;;;;;;12.38;3.70;;;;;;;;;;4931454;28;20098;-64
2021/10/27 13:34:52;;;;;;;9.70;3.60;;;;;;;;;;4957202;28;20042;-63
2021/10/27 13:37:20;;;;;;;10.35;3.45;;;;;;;;;;4946805;28;20035;-63
2021/10/27 13:39:50;;;;;;;7.18;3.38;;;;;;;;;;4947538;28;20058;-64
2021/10/27 13:42:23;;;;;;;12.73;3.83;;;;;;;;;;4964688;28;20048;-63
2021/10/27 13:45:04;;;;;;;11.65;3.88;;;;;;;;;;4976786;28;20058;-63
2021/10/27 13:47:38;;;;;;;10.15;4.15;;;;;;;;;;4964697;28;20047;-62
2021/10/27 14:06:37;;;;;;;18.65;4.28;;;;;;;;;;4957654;28;20053;-62
2021/10/27 14:09:09;;;;;;;10.52;3.80;;;;;;;;;;4981765;28;20054;-62
2021/10/27 14:11:43;;;;;;;8.85;4.20;;;;;;;;;;4965941;28;20081;-63
2021/10/27 14:14:23;;;;;;;11.55;4.05;;;;;;;;;;4969272;28;20046;-63
2021/10/27 14:19:54;;;;;;;12.75;3.97;;;;;;;;;;4980901;28;20046;-63
2021/10/27 14:47:50;;;;;;;9.70;3.35;;;;;;;;;;4980855;28;20042;-63
2021/10/27 15:20:51;;;;;;;10.90;3.65;;;;;;;;;;4937694;28;20050;-64
2021/10/27 15:23:23;;;;;;;12.32;3.85;;;;;;;;;;4946782;28;20102;-63
2021/10/27 15:27:31;;;;;;;13.63;3.58;;;;;;;;;;4957605;28;20058;-63
2021/10/27 15:28:55;;;;;;;9.85;3.17;;;;;;;;;;4943361;28;20055;-62
2021/10/27 15:31:34;;;;;;;12.63;3.78;;;;;;;;;;4955157;28;20050;-62
2021/10/27 15:34:19;;;;;;;11.10;3.92;;;;;;;;;;4944904;28;20035;-64
2021/10/27 15:37:03;;;;;;;14.85;3.65;;;;;;;;;;4937355;28;20051;-64
2021/10/27 15:42:39;;;;;;;9.25;3.65;;;;;;;;;;4941253;28;20035;-64
2021/10/27 15:50:37;;;;;;;12.95;4.40;;;;;;;;;;4945076;28;20074;-64
2021/10/27 15:53:05;;;;;;;8.80;3.45;;;;;;;;;;4938536;28;20047;-65
2021/10/27 15:55:32;;;;;;;16.63;4.35;;;;;;;;;;4937982;28;20466;-64
2021/10/27 15:57:58;;;;;;;15.13;4.72;;;;;;;;;;4961758;28;20078;-64
2021/10/27 16:00:25;;;;;;;13.27;5.80;;;;;;;;;;4953235;28;20051;-62
2021/10/27 16:02:51;;;;;;;12.23;4.80;;;;;;;;;;4946175;28;20039;-63
2021/10/27 16:05:18;;;;;;;12.98;5.05;;;;;;;;;;4939264;28;20050;-62
2021/10/27 16:07:47;;;;;;;12.68;4.40;;;;;;;;;;4960877;28;20114;-63
2021/10/27 16:10:16;;;;;;;13.70;4.68;;;;;;;;;;4959166;28;20075;-64
2021/10/27 16:12:43;;;;;;;16.38;5.00;;;;;;;;;;4979142;28;20046;-63
2021/10/27 16:15:16;;;;;;;13.18;4.20;;;;;;;;;;4981404;28;20109;-63
2021/10/27 16:17:43;;;;;;;14.85;6.88;;;;;;;;;;4961687;28;20034;-62
2021/10/27 16:20:10;;;;;;;14.07;5.80;;;;;;;;;;4967094;28;20053;-63
2021/10/27 16:22:37;;;;;;;16.00;6.32;;;;;;;;;;4962537;28;20038;-64
2021/10/27 16:25:04;;;;;;;18.58;8.27;;;;;;;;;;4984913;28;20086;-64
2021/10/27 16:27:32;;;;;;;17.52;7.78;;;;;;;;;;4980801;28;20121;-64
2021/10/27 16:29:59;;;;;;;14.80;7.28;;;;;;;;;;4965284;28;20063;-64
2021/10/27 16:32:25;;;;;;;14.95;5.95;;;;;;;;;;4962096;28;20058;-63
2021/10/27 16:34:52;;;;;;;14.55;5.90;;;;;;;;;;4983880;28;20071;-67
2021/10/27 16:37:19;;;;;;;28.45;7.85;;;;;;;;;;4981574;28;20046;-64
2021/10/27 16:39:45;;;;;;;41.80;12.05;;;;;;;;;;4966525;28;20038;-64
2021/10/27 16:42:12;;;;;;;38.25;12.32;;;;;;;;;;4979403;28;20046;-64
2021/10/27 16:44:40;;;;;;;41.38;12.65;;;;;;;;;;4966190;28;20042;-64
2021/10/27 16:47:07;;;;;;;19.02;9.07;;;;;;;;;;4959088;28;20057;-64
2021/10/27 16:49:33;;;;;;;18.42;6.90;;;;;;;;;;4965755;28;20062;-63
2021/10/27 16:52:00;;;;;;;14.50;5.75;;;;;;;;;;4979310;28;20054;-64
2021/10/27 16:54:27;;;;;;;10.27;5.07;;;;;;;;;;4962136;28;20043;-63
2021/10/27 16:56:53;;;;;;;15.43;4.90;;;;;;;;;;4965409;28;20050;-63
2021/10/27 16:59:20;;;;;;;16.25;5.43;;;;;;;;;;4980363;28;20051;-62
2021/10/27 17:01:48;;;;;;;10.75;4.55;;;;;;;;;;4965912;28;20042;-63
2021/10/27 17:04:16;;;;;;;8.93;4.32;;;;;;;;;;4962823;28;20035;-63
2021/10/27 17:06:44;;;;;;;14.73;4.85;;;;;;;;;;4976703;28;20110;-63
2021/10/27 17:09:10;;;;;;;13.30;4.75;;;;;;;;;;4943470;28;20047;-62
2021/10/27 17:11:37;;;;;;;12.15;5.20;;;;;;;;;;4947978;28;20050;-63
2021/10/27 17:14:04;;;;;;;13.48;4.88;;;;;;;;;;4942139;28;20046;-63
2021/10/27 17:16:32;;;;;;;16.05;5.53;;;;;;;;;;4945630;28;20130;-63
2021/10/27 17:19:00;;;;;;;11.75;5.03;;;;;;;;;;4959764;28;20047;-63
2021/10/27 17:21:28;;;;;;;16.65;5.05;;;;;;;;;;4946453;28;20145;-62
2021/10/27 17:23:58;;;;;;;10.93;4.85;;;;;;;;;;4961892;28;20118;-63
2021/10/27 17:26:25;;;;;;;10.40;4.60;;;;;;;;;;4945032;28;20043;-63
2021/10/27 17:28:51;;;;;;;11.95;3.85;;;;;;;;;;4943361;28;20031;-62
2021/10/27 17:31:18;;;;;;;10.70;4.57;;;;;;;;;;4945653;28;20051;-62
2021/10/27 17:33:45;;;;;;;14.65;4.78;;;;;;;;;;4943199;28;20057;-63
2021/10/27 17:36:13;;;;;;;10.95;4.15;;;;;;;;;;4946318;28;20039;-63
2021/10/27 17:38:41;;;;;;;13.50;4.38;;;;;;;;;;4945436;28;20043;-63
2021/10/27 17:41:08;;;;;;;11.60;5.07;;;;;;;;;;4941226;28;20118;-63
2021/10/27 17:43:37;;;;;;;14.18;4.95;;;;;;;;;;4945005;28;20063;-63
2021/10/27 17:46:08;;;;;;;18.50;6.55;;;;;;;;;;4943796;28;20063;-62
2021/10/27 17:48:37;;;;;;;13.75;6.47;;;;;;;;;;4944981;28;20043;-63
2021/10/27 17:51:09;;;;;;;15.88;6.63;;;;;;;;;;4938971;28;20182;-63
2021/10/27 17:59:02;;;;;;;17.50;7.07;;;;;;;;;;4943628;28;20047;-63
2021/10/27 18:01:29;;;;;;;16.67;6.53;;;;;;;;;;4931828;28;20099;-62
2021/10/27 18:03:57;;;;;;;16.63;6.50;;;;;;;;;;4963459;28;20050;-62
2021/10/27 18:06:25;;;;;;;15.32;5.43;;;;;;;;;;4940363;28;20043;-62
2021/10/27 18:08:53;;;;;;;12.77;6.23;;;;;;;;;;4946106;28;20079;-63
2021/10/27 18:11:21;;;;;;;11.60;5.32;;;;;;;;;;4943812;28;20075;-63
2021/10/27 18:13:49;;;;;;;12.05;4.85;;;;;;;;;;4945309;28;20065;-63
2021/10/27 18:16:20;;;;;;;15.25;5.55;;;;;;;;;;4961949;28;20047;-62
2021/10/27 18:18:52;;;;;;;15.68;5.95;;;;;;;;;;4941309;28;20063;-63
2021/10/27 18:21:23;;;;;;;14.88;5.70;;;;;;;;;;4939914;28;20050;-62